Time;durP1;ratioP1;P1;durP2;ratioP2;P2;SDS_P1;SDS_P2;PMS_P1;PMS_P2;Temp;Humidity;BMP_temperature;BMP_pressure;BME280_temperature;BME280_humidity;BME280_pressure;Samples;Min_cycle;Max_cycle;Signal;HPM_P1;HPM_P2
2022/11/15 00:00:47;;;;;;;25.45;17.85;;;8.40;99.90;;;;;;5112362;28;20043;-71
2022/11/15 00:03:14;;;;;;;24.48;17.60;;;8.40;99.90;;;;;;5112715;28;20043;-71
2022/11/15 00:05:40;;;;;;;18.90;16.42;;;8.40;99.90;;;;;;5114215;28;20092;-71
2022/11/15 00:08:06;;;;;;;20.40;16.13;;;8.40;99.90;;;;;;5112661;28;20073;-71
2022/11/15 00:10:31;;;;;;;26.17;17.23;;;8.50;99.90;;;;;;5113609;28;20504;-71
2022/11/15 00:12:57;;;;;;;22.52;17.08;;;8.40;99.90;;;;;;5113424;28;20045;-71
2022/11/15 00:15:22;;;;;;;20.88;15.80;;;8.50;99.90;;;;;;5112554;28;20043;-71
2022/11/15 00:17:49;;;;;;;22.95;17.35;;;8.50;99.90;;;;;;5114089;28;20472;-71
2022/11/15 00:20:15;;;;;;;22.45;15.88;;;8.50;99.90;;;;;;5112168;28;20373;-71
2022/11/15 00:22:40;;;;;;;19.90;15.43;;;8.60;99.90;;;;;;5112434;28;20089;-71
2022/11/15 00:25:06;;;;;;;20.52;16.60;;;8.60;99.90;;;;;;5113733;28;20377;-71
2022/11/15 00:27:32;;;;;;;19.58;16.08;;;8.60;99.90;;;;;;5112187;28;20044;-71
2022/11/15 00:29:57;;;;;;;19.40;15.80;;;8.60;99.90;;;;;;5112177;28;20129;-71
2022/11/15 00:32:23;;;;;;;19.77;16.02;;;8.60;99.90;;;;;;5112082;28;20040;-71
2022/11/15 00:34:48;;;;;;;20.80;16.52;;;8.60;99.90;;;;;;5112111;28;20051;-71
2022/11/15 00:37:14;;;;;;;19.10;15.32;;;8.60;99.90;;;;;;5112081;28;20123;-71
2022/11/15 00:39:39;;;;;;;20.30;15.93;;;8.60;99.90;;;;;;5111954;28;20128;-71
2022/11/15 00:42:05;;;;;;;19.73;16.10;;;8.60;99.90;;;;;;5111861;28;20097;-71
2022/11/15 00:44:30;;;;;;;22.30;16.33;;;8.50;99.90;;;;;;5112017;28;20047;-71
2022/11/15 00:46:56;;;;;;;21.48;17.35;;;8.60;99.90;;;;;;5111978;28;20047;-71
2022/11/15 00:49:21;;;;;;;20.55;16.00;;;8.50;99.90;;;;;;5111975;28;20039;-71
2022/11/15 00:51:47;;;;;;;20.10;16.55;;;8.50;99.90;;;;;;5112163;28;20048;-71
2022/11/15 00:54:12;;;;;;;22.95;17.40;;;8.60;99.90;;;;;;5111924;28;20412;-71
2022/11/15 00:56:39;;;;;;;20.42;16.15;;;8.50;99.90;;;;;;5112275;28;20062;-71
2022/11/15 00:59:04;;;;;;;21.63;16.65;;;8.50;99.90;;;;;;5111890;28;20048;-71
2022/11/15 01:01:30;;;;;;;21.13;16.55;;;8.50;99.90;;;;;;5111752;28;20100;-71
2022/11/15 01:03:55;;;;;;;23.23;18.23;;;8.50;99.90;;;;;;5113093;28;20055;-71
2022/11/15 01:06:21;;;;;;;22.45;17.40;;;8.50;99.90;;;;;;5111810;28;20042;-71
2022/11/15 01:08:47;;;;;;;22.20;16.40;;;8.50;99.90;;;;;;5113154;28;20036;-71
2022/11/15 01:11:12;;;;;;;21.80;17.10;;;8.50;99.90;;;;;;5115542;28;20510;-71
2022/11/15 01:13:38;;;;;;;21.02;17.10;;;8.50;99.90;;;;;;5115832;28;20096;-71
2022/11/15 01:16:10;;;;;;;25.88;17.02;;;8.40;99.90;;;;;;5115792;28;20079;-71
2022/11/15 01:18:36;;;;;;;22.67;17.05;;;8.40;99.90;;;;;;5115476;28;20043;-71
2022/11/15 01:21:10;;;;;;;21.88;16.38;;;8.40;99.90;;;;;;5115294;28;20046;-71
2022/11/15 01:23:36;;;;;;;21.02;16.23;;;8.40;99.90;;;;;;5115476;28;20040;-71
2022/11/15 01:26:04;;;;;;;22.95;17.27;;;8.40;99.90;;;;;;5115311;28;20036;-71
2022/11/15 01:28:31;;;;;;;24.67;17.08;;;8.30;99.90;;;;;;5116531;28;20523;-71
2022/11/15 01:31:00;;;;;;;24.25;16.70;;;8.30;99.90;;;;;;5116764;28;20032;-71
2022/11/15 01:33:27;;;;;;;27.25;17.38;;;8.30;99.90;;;;;;5115152;28;20054;-71
2022/11/15 01:35:52;;;;;;;26.15;18.17;;;8.30;99.90;;;;;;5115119;28;20047;-71
2022/11/15 01:38:18;;;;;;;25.35;18.10;;;8.20;99.90;;;;;;5115117;28;20067;-71
2022/11/15 01:40:43;;;;;;;27.75;18.48;;;8.30;99.90;;;;;;5114969;28;20074;-71
2022/11/15 01:43:25;;;;;;;27.85;19.13;;;8.30;99.90;;;;;;5115074;28;20048;-71
2022/11/15 01:46:26;;;;;;;28.17;19.10;;;8.30;99.90;;;;;;5114963;28;20036;-71
2022/11/15 01:48:54;;;;;;;27.30;18.67;;;8.30;99.90;;;;;;5107913;28;20055;-71
2022/11/15 01:51:23;;;;;;;27.20;18.38;;;8.30;99.90;;;;;;5115071;28;20062;-71
2022/11/15 01:53:54;;;;;;;26.77;18.63;;;8.30;99.90;;;;;;5114772;28;20471;-71
2022/11/15 01:56:24;;;;;;;26.13;17.90;;;8.30;99.90;;;;;;5114821;28;20092;-71
2022/11/15 01:58:51;;;;;;;28.08;18.73;;;8.30;99.90;;;;;;5114741;28;20096;-71
2022/11/15 02:01:17;;;;;;;26.83;18.67;;;8.40;99.90;;;;;;5114521;28;20039;-71
2022/11/15 02:03:57;;;;;;;27.40;18.52;;;8.30;99.90;;;;;;5114881;28;20403;-71
2022/11/15 02:06:23;;;;;;;30.58;18.55;;;8.40;99.90;;;;;;5114888;28;20103;-71
2022/11/15 02:08:50;;;;;;;25.15;18.42;;;8.40;99.90;;;;;;5114724;28;20408;-71
2022/11/15 02:11:15;;;;;;;29.27;19.20;;;8.40;99.90;;;;;;5114414;28;20054;-71
2022/11/15 02:13:42;;;;;;;26.73;18.90;;;8.40;99.90;;;;;;5115945;28;20039;-71
2022/11/15 02:16:26;;;;;;;25.92;17.60;;;8.40;99.90;;;;;;5114378;28;20047;-71
2022/11/15 02:19:21;;;;;;;27.17;18.75;;;8.40;99.90;;;;;;5114355;28;20039;-71
2022/11/15 02:21:59;;;;;;;25.70;18.73;;;8.40;99.90;;;;;;5113354;28;20124;-71
2022/11/15 02:25:19;;;;;;;25.98;18.15;;;8.40;99.90;;;;;;5114520;28;20108;-71
2022/11/15 02:28:21;;;;;;;25.10;17.17;;;8.40;99.90;;;;;;5016305;28;20048;-71
2022/11/15 02:31:05;;;;;;;27.25;17.25;;;8.40;99.90;;;;;;5016429;28;20056;-71
2022/11/15 02:34:03;;;;;;;25.17;17.52;;;8.40;99.90;;;;;;5016149;28;20041;-71
2022/11/15 02:36:37;;;;;;;26.70;17.95;;;8.40;99.90;;;;;;5016515;28;20081;-71
2022/11/15 02:39:07;;;;;;;26.55;17.63;;;8.40;99.90;;;;;;5016031;28;20045;-71
2022/11/15 02:41:38;;;;;;;26.23;17.70;;;8.50;99.90;;;;;;5015573;28;20053;-71
2022/11/15 02:44:11;;;;;;;27.65;18.35;;;8.50;99.90;;;;;;5015991;28;20052;-71
2022/11/15 02:49:27;;;;;;;25.67;17.58;;;8.40;99.90;;;;;;5015966;28;19917;-71
2022/11/15 02:51:55;;;;;;;29.95;18.52;;;8.40;99.90;;;;;;5015885;28;20132;-71
2022/11/15 02:54:28;;;;;;;28.23;18.23;;;8.50;99.90;;;;;;5032245;28;20080;-71
2022/11/15 02:56:59;;;;;;;27.15;17.15;;;8.40;99.90;;;;;;5015712;28;20387;-71
2022/11/15 02:59:36;;;;;;;32.10;18.30;;;8.50;99.90;;;;;;5015694;28;20049;-72
2022/11/15 03:02:23;;;;;;;25.02;17.73;;;8.50;99.90;;;;;;5076253;28;20056;-71
2022/11/15 03:05:01;;;;;;;31.70;19.40;;;8.50;99.90;;;;;;5113454;28;20114;-71
2022/11/15 03:07:30;;;;;;;32.55;19.67;;;8.50;99.90;;;;;;5113405;28;20035;-70
2022/11/15 03:10:06;;;;;;;35.92;20.77;;;8.60;99.90;;;;;;5113280;28;20523;-70
2022/11/15 03:13:09;;;;;;;36.53;20.65;;;8.60;99.90;;;;;;5113155;28;20032;-70
2022/11/15 03:15:46;;;;;;;36.95;19.95;;;8.60;99.90;;;;;;5062013;28;20051;-71
2022/11/15 03:18:27;;;;;;;41.90;20.88;;;8.60;99.90;;;;;;5113432;28;20378;-71
2022/11/15 03:20:54;;;;;;;42.97;21.95;;;8.60;99.90;;;;;;5113018;28;20047;-71
2022/11/15 03:23:20;;;;;;;42.50;21.02;;;8.60;99.90;;;;;;5113083;28;20051;-71
2022/11/15 03:25:50;;;;;;;37.70;20.83;;;8.60;99.90;;;;;;5114261;28;20031;-71
2022/11/15 03:28:27;;;;;;;38.22;22.27;;;8.60;99.90;;;;;;5113240;28;20043;-70
2022/11/15 03:30:55;;;;;;;39.20;22.20;;;8.70;99.90;;;;;;5114123;28;20397;-70
2022/11/15 03:33:21;;;;;;;42.75;22.88;;;8.70;99.90;;;;;;5113086;28;20050;-70
2022/11/15 03:35:48;;;;;;;35.33;20.67;;;8.70;99.90;;;;;;5112838;28;20055;-70
2022/11/15 03:38:26;;;;;;;40.47;22.50;;;8.70;99.90;;;;;;5112804;28;20051;-70
2022/11/15 03:40:59;;;;;;;42.05;22.40;;;8.80;99.90;;;;;;5112674;28;20043;-70
2022/11/15 03:43:43;;;;;;;41.45;22.40;;;8.80;99.90;;;;;;5112963;28;20044;-70
2022/11/15 03:46:16;;;;;;;44.83;22.98;;;8.80;99.90;;;;;;5112773;28;20039;-70
2022/11/15 03:48:54;;;;;;;49.63;23.42;;;8.70;99.90;;;;;;5112698;28;20053;-70
2022/11/15 03:51:20;;;;;;;46.97;23.70;;;8.70;99.90;;;;;;5112859;28;20054;-70
2022/11/15 03:53:46;;;;;;;40.95;22.58;;;8.80;99.90;;;;;;5112877;28;20048;-70
2022/11/15 03:56:11;;;;;;;40.92;22.05;;;8.80;99.90;;;;;;5114049;28;20035;-70
2022/11/15 03:58:37;;;;;;;42.03;22.13;;;8.80;99.90;;;;;;5113738;28;20047;-70
2022/11/15 04:01:03;;;;;;;41.25;22.63;;;8.80;99.90;;;;;;5114141;28;20040;-70
2022/11/15 04:03:28;;;;;;;39.35;22.85;;;8.80;99.90;;;;;;5112430;28;20035;-70
2022/11/15 04:05:54;;;;;;;42.78;23.13;;;8.80;99.90;;;;;;5112380;28;20027;-70
2022/11/15 04:08:19;;;;;;;47.55;24.02;;;8.80;99.90;;;;;;5115017;28;20039;-71
2022/11/15 04:10:45;;;;;;;50.45;25.52;;;8.80;99.90;;;;;;5114463;28;20086;-72
2022/11/15 04:13:10;;;;;;;49.95;25.00;;;8.90;99.90;;;;;;5115120;28;20078;-72
2022/11/15 04:15:36;;;;;;;46.53;23.95;;;8.90;99.90;;;;;;5116539;28;20042;-71
2022/11/15 04:18:02;;;;;;;50.72;25.27;;;8.90;99.90;;;;;;5116293;28;20032;-71
2022/11/15 04:26:12;;;;;;;57.80;27.77;;;8.90;99.90;;;;;;5114817;28;20043;-71
2022/11/15 04:29:33;;;;;;;56.35;28.38;;;8.90;99.90;;;;;;5114931;28;20495;-72
2022/11/15 04:31:24;;;;;;;54.95;28.92;;;8.90;99.90;;;;;;5114960;28;20079;-71
2022/11/15 04:33:49;;;;;;;61.65;29.83;;;8.90;99.90;;;;;;5114882;28;20039;-71
2022/11/15 04:38:59;;;;;;;63.28;30.88;;;9.00;99.90;;;;;;5114527;28;20133;-71
2022/11/15 04:41:25;;;;;;;61.88;30.38;;;9.00;99.90;;;;;;5114546;28;20079;-71
2022/11/15 04:43:50;;;;;;;78.45;32.05;;;9.00;99.90;;;;;;5115957;28;20480;-72
2022/11/15 04:46:16;;;;;;;64.97;32.03;;;9.00;99.90;;;;;;5119032;28;20484;-71
2022/11/15 04:48:41;;;;;;;61.65;30.65;;;9.00;99.90;;;;;;5118317;28;20403;-71
2022/11/15 04:51:07;;;;;;;57.58;30.20;;;9.10;99.90;;;;;;5116732;28;20043;-71
2022/11/15 04:53:33;;;;;;;66.97;30.80;;;9.10;99.90;;;;;;5115947;28;20052;-71
2022/11/15 04:55:58;;;;;;;69.90;32.78;;;9.10;99.90;;;;;;5116156;28;20119;-71
2022/11/15 04:58:23;;;;;;;62.22;30.27;;;9.10;99.90;;;;;;5117106;28;20039;-71
2022/11/15 05:00:49;;;;;;;64.40;31.20;;;9.10;99.90;;;;;;5116893;28;20047;-71
2022/11/15 05:05:59;;;;;;;60.95;30.17;;;9.10;99.90;;;;;;5117562;28;20039;-71
2022/11/15 05:08:25;;;;;;;58.97;30.50;;;9.20;99.90;;;;;;5115643;28;20472;-70
2022/11/15 05:10:50;;;;;;;66.30;31.45;;;9.20;99.90;;;;;;5115801;28;20051;-70
2022/11/15 05:13:16;;;;;;;58.75;30.60;;;9.20;99.90;;;;;;5115539;28;20488;-70
2022/11/15 05:15:42;;;;;;;76.22;33.75;;;9.20;99.90;;;;;;5115500;28;20071;-71
2022/11/15 05:18:07;;;;;;;70.55;32.75;;;9.30;99.90;;;;;;5117007;28;20150;-71
2022/11/15 05:20:33;;;;;;;57.70;32.15;;;9.20;99.90;;;;;;5115376;28;20093;-71
2022/11/15 05:22:59;;;;;;;67.38;32.88;;;9.30;99.90;;;;;;5115339;28;20035;-71
2022/11/15 05:25:24;;;;;;;58.03;30.50;;;9.30;99.90;;;;;;5116571;28;20036;-71
2022/11/15 05:27:50;;;;;;;61.17;31.13;;;9.40;99.90;;;;;;5115327;28;20035;-70
2022/11/15 05:30:16;;;;;;;59.83;31.38;;;9.40;99.90;;;;;;5115502;28;20044;-70
2022/11/15 05:32:42;;;;;;;68.00;32.67;;;9.40;99.90;;;;;;5115135;28;20116;-70
2022/11/15 05:35:13;;;;;;;52.03;30.85;;;9.40;99.90;;;;;;5115170;28;20039;-70
2022/11/15 05:37:39;;;;;;;62.45;32.47;;;9.50;99.90;;;;;;5116373;28;20452;-70
2022/11/15 05:40:05;;;;;;;60.85;32.75;;;9.50;99.90;;;;;;5116259;28;20052;-70
2022/11/15 05:42:31;;;;;;;54.95;30.27;;;9.50;99.90;;;;;;5116323;28;20039;-71
2022/11/15 05:44:58;;;;;;;49.15;29.48;;;9.60;99.90;;;;;;5116051;28;20036;-69
2022/11/15 05:47:27;;;;;;;54.22;30.75;;;9.60;99.90;;;;;;5114967;28;20043;-69
2022/11/15 05:49:53;;;;;;;52.78;31.00;;;9.60;99.90;;;;;;5116136;28;20071;-69
2022/11/15 05:52:25;;;;;;;52.78;31.40;;;9.70;99.90;;;;;;5114836;28;20067;-69
2022/11/15 05:54:52;;;;;;;55.75;31.92;;;9.70;99.90;;;;;;5113935;28;20114;-69
2022/11/15 05:57:17;;;;;;;56.67;31.02;;;9.70;99.90;;;;;;5114476;28;20035;-69
2022/11/15 05:59:43;;;;;;;52.05;31.02;;;9.70;99.90;;;;;;5115139;28;20138;-71
2022/11/15 06:02:10;;;;;;;49.25;30.23;;;9.70;99.90;;;;;;5116251;28;20055;-71
2022/11/15 06:04:35;;;;;;;50.25;30.05;;;9.80;99.90;;;;;;5116375;28;20043;-71
2022/11/15 06:07:01;;;;;;;56.50;31.15;;;9.80;99.90;;;;;;5116472;28;20036;-71
2022/11/15 06:09:26;;;;;;;46.97;30.10;;;9.80;99.90;;;;;;5116049;28;20077;-71
2022/11/15 06:11:52;;;;;;;62.33;32.13;;;9.80;99.90;;;;;;5116069;28;20116;-71
2022/11/15 06:14:18;;;;;;;51.92;31.40;;;9.80;99.90;;;;;;5116385;28;20101;-71
2022/11/15 06:16:43;;;;;;;53.35;30.02;;;9.80;99.90;;;;;;5099020;28;20044;-72
2022/11/15 06:19:09;;;;;;;57.47;31.33;;;9.80;99.90;;;;;;5116530;28;20122;-72
2022/11/15 06:21:35;;;;;;;54.05;30.17;;;9.90;99.90;;;;;;5116435;28;20078;-72
2022/11/15 06:24:01;;;;;;;55.05;30.35;;;9.90;99.90;;;;;;5115369;28;20043;-72
2022/11/15 06:26:26;;;;;;;56.65;29.55;;;9.90;99.90;;;;;;5114496;28;20488;-70
2022/11/15 06:28:52;;;;;;;50.10;28.80;;;10.00;99.90;;;;;;5114117;28;20519;-70
2022/11/15 06:31:17;;;;;;;53.95;29.20;;;10.00;99.90;;;;;;5114029;28;20047;-70
2022/11/15 06:33:43;;;;;;;59.65;31.65;;;10.00;99.90;;;;;;5114045;28;20131;-70
2022/11/15 06:36:13;;;;;;;55.20;31.15;;;10.00;99.90;;;;;;5114222;28;20058;-70
2022/11/15 06:38:39;;;;;;;44.53;28.52;;;10.00;99.90;;;;;;5114031;28;20044;-70
2022/11/15 06:41:07;;;;;;;55.20;30.08;;;10.00;99.90;;;;;;5113740;28;20046;-70
2022/11/15 06:43:33;;;;;;;52.92;27.90;;;10.10;99.90;;;;;;5113793;28;20161;-70
2022/11/15 06:46:00;;;;;;;52.75;27.60;;;10.10;99.90;;;;;;5115387;28;20473;-70
2022/11/15 06:48:26;;;;;;;51.80;30.20;;;10.10;99.90;;;;;;5115331;28;20028;-70
2022/11/15 06:50:52;;;;;;;51.63;28.90;;;10.10;99.90;;;;;;5113643;28;20507;-70
2022/11/15 06:53:18;;;;;;;49.85;28.90;;;10.20;99.90;;;;;;5115190;28;20106;-69
2022/11/15 06:55:44;;;;;;;48.67;29.02;;;10.20;99.90;;;;;;5113630;28;20568;-68
2022/11/15 06:58:09;;;;;;;51.40;28.80;;;10.20;99.90;;;;;;5113598;28;20055;-68
2022/11/15 07:00:35;;;;;;;49.83;28.25;;;10.20;99.90;;;;;;5113594;28;20085;-68
2022/11/15 07:03:01;;;;;;;45.88;27.70;;;10.30;99.90;;;;;;5113327;28;20039;-69
2022/11/15 07:05:27;;;;;;;49.17;28.85;;;10.30;99.90;;;;;;5113464;28;20039;-69
2022/11/15 07:07:54;;;;;;;50.15;28.13;;;10.30;99.90;;;;;;5113091;28;20039;-69
2022/11/15 07:10:21;;;;;;;43.42;26.70;;;10.30;99.90;;;;;;5096442;28;20083;-70
2022/11/15 07:12:48;;;;;;;47.08;28.73;;;10.40;99.90;;;;;;5113237;28;20449;-70
2022/11/15 07:15:15;;;;;;;50.00;28.08;;;10.40;99.90;;;;;;5113244;28;20049;-70
2022/11/15 07:17:41;;;;;;;45.70;26.63;;;10.40;99.90;;;;;;5113180;28;20453;-70
2022/11/15 07:20:07;;;;;;;45.05;27.05;;;10.40;99.90;;;;;;5113095;28;20039;-70
2022/11/15 07:22:32;;;;;;;43.53;27.65;;;10.40;99.90;;;;;;5113303;28;20035;-70
2022/11/15 07:24:58;;;;;;;43.42;26.00;;;10.40;99.90;;;;;;5113082;28;20063;-70
2022/11/15 07:27:24;;;;;;;43.42;26.27;;;10.50;99.90;;;;;;5113028;28;20083;-71
2022/11/15 07:29:49;;;;;;;38.78;24.73;;;10.50;99.90;;;;;;5112970;28;20043;-71
2022/11/15 07:32:15;;;;;;;37.42;23.98;;;10.50;99.90;;;;;;5114111;28;20118;-71
2022/11/15 07:34:40;;;;;;;42.40;25.27;;;10.50;99.90;;;;;;5113165;28;20039;-68
2022/11/15 07:37:06;;;;;;;35.67;24.23;;;10.50;99.90;;;;;;5112821;28;20050;-68
2022/11/15 07:39:31;;;;;;;38.05;24.15;;;10.60;99.90;;;;;;5114837;28;20118;-71
2022/11/15 07:44:41;;;;;;;36.70;24.92;;;10.60;99.90;;;;;;5114221;28;20043;-70
2022/11/15 07:47:06;;;;;;;39.35;23.42;;;10.60;99.90;;;;;;5113929;28;20117;-71
2022/11/15 07:49:32;;;;;;;33.90;22.98;;;10.60;99.90;;;;;;5112963;28;20035;-71
2022/11/15 07:51:57;;;;;;;32.85;21.75;;;10.60;99.90;;;;;;5112832;28;20071;-71
2022/11/15 07:54:23;;;;;;;33.17;22.65;;;10.70;99.90;;;;;;5113030;28;20047;-71
2022/11/15 07:56:49;;;;;;;32.40;23.10;;;10.70;99.90;;;;;;5113826;28;20369;-71
2022/11/15 07:59:14;;;;;;;35.95;22.05;;;10.70;99.90;;;;;;5113320;28;20427;-71
2022/11/15 08:01:40;;;;;;;32.67;22.52;;;10.70;99.90;;;;;;5112311;28;20523;-71
2022/11/15 08:04:05;;;;;;;32.03;23.10;;;10.70;99.90;;;;;;5112696;28;20031;-71
2022/11/15 08:06:31;;;;;;;34.78;22.67;;;10.70;99.90;;;;;;5112718;28;20457;-71
2022/11/15 08:08:56;;;;;;;35.92;22.40;;;10.70;99.90;;;;;;5112409;28;20464;-71
2022/11/15 08:11:22;;;;;;;31.92;22.13;;;10.80;99.90;;;;;;5112285;28;20046;-71
2022/11/15 08:13:47;;;;;;;34.03;23.80;;;10.80;99.90;;;;;;5112599;28;20404;-71
2022/11/15 08:16:13;;;;;;;31.85;21.90;;;10.80;99.90;;;;;;5112554;28;20408;-71
2022/11/15 08:18:38;;;;;;;32.97;22.48;;;10.90;99.90;;;;;;5111571;28;20433;-71
2022/11/15 08:21:04;;;;;;;29.15;20.73;;;10.90;99.90;;;;;;5112374;28;20129;-71
2022/11/15 08:23:30;;;;;;;30.95;21.55;;;10.90;99.90;;;;;;5112228;28;20507;-71
2022/11/15 08:26:03;;;;;;;31.73;21.40;;;10.90;99.90;;;;;;5112519;28;20055;-71
2022/11/15 08:28:29;;;;;;;;;;;10.90;99.90;;;;;;5112576;28;20412;-71
2022/11/15 08:30:54;;;;;;;28.98;20.25;;;10.90;99.90;;;;;;5112394;28;19915;-71
2022/11/15 08:33:20;;;;;;;24.42;19.48;;;10.90;99.90;;;;;;5112157;28;20492;-70
2022/11/15 08:35:46;;;;;;;26.88;20.35;;;10.90;99.90;;;;;;5112132;28;20043;-70
2022/11/15 08:38:12;;;;;;;31.00;20.38;;;11.00;99.90;;;;;;5112364;28;20044;-70
2022/11/15 08:40:38;;;;;;;30.23;20.45;;;11.00;99.90;;;;;;5111983;28;20378;-70
2022/11/15 08:43:04;;;;;;;25.20;19.10;;;11.10;99.90;;;;;;5111822;28;20092;-70
2022/11/15 08:45:30;;;;;;;31.75;20.20;;;11.10;99.90;;;;;;5112078;28;20044;-70
2022/11/15 08:47:56;;;;;;;27.83;19.05;;;11.10;99.90;;;;;;5112335;28;20054;-68
2022/11/15 08:50:22;;;;;;;25.65;19.63;;;11.10;99.90;;;;;;5112014;28;20114;-68
2022/11/15 08:52:48;;;;;;;27.50;19.63;;;11.20;99.90;;;;;;5112878;28;20122;-68
2022/11/15 08:55:14;;;;;;;28.75;19.77;;;11.20;99.90;;;;;;5112009;28;20051;-69
2022/11/15 08:57:39;;;;;;;26.08;19.20;;;11.20;99.90;;;;;;5111902;28;20039;-69
2022/11/15 09:00:06;;;;;;;25.20;19.08;;;11.20;99.90;;;;;;5111834;28;20119;-68
2022/11/15 09:02:31;;;;;;;26.83;20.08;;;11.20;99.90;;;;;;5111875;28;20036;-68
2022/11/15 09:04:57;;;;;;;24.40;18.88;;;11.30;99.90;;;;;;5111862;28;20168;-70
2022/11/15 09:07:22;;;;;;;29.33;19.65;;;11.30;99.90;;;;;;5111842;28;20114;-71
2022/11/15 09:09:48;;;;;;;29.05;19.23;;;11.30;99.90;;;;;;5115048;28;20035;-71
2022/11/15 09:12:13;;;;;;;24.83;19.52;;;11.30;99.90;;;;;;5115256;28;20043;-71
2022/11/15 09:14:39;;;;;;;27.75;20.15;;;11.30;99.90;;;;;;5115324;28;20039;-71
2022/11/15 09:17:08;;;;;;;25.40;19.65;;;11.30;99.90;;;;;;5115139;28;20050;-71
2022/11/15 09:19:34;;;;;;;28.40;19.48;;;11.40;99.90;;;;;;5115626;28;20096;-71
2022/11/15 09:21:59;;;;;;;27.42;19.55;;;11.40;99.90;;;;;;5115196;28;20508;-71
2022/11/15 09:24:25;;;;;;;27.10;19.05;;;11.40;99.90;;;;;;5114708;28;20118;-71
2022/11/15 09:26:51;;;;;;;25.65;19.00;;;11.40;99.90;;;;;;5111693;28;20098;-71
2022/11/15 09:29:17;;;;;;;30.85;19.60;;;11.50;99.90;;;;;;5111992;28;20047;-71
2022/11/15 09:31:43;;;;;;;27.88;19.73;;;11.50;99.90;;;;;;5115516;28;20062;-71
2022/11/15 09:34:08;;;;;;;25.15;19.17;;;11.50;99.90;;;;;;5115495;28;20488;-71
2022/11/15 09:36:34;;;;;;;24.88;19.45;;;11.50;99.90;;;;;;5098258;28;20412;-71
2022/11/15 09:39:00;;;;;;;26.33;19.05;;;11.50;99.90;;;;;;5116023;28;20070;-70
2022/11/15 09:41:34;;;;;;;27.85;19.52;;;11.50;99.90;;;;;;5116338;28;20490;-70
2022/11/15 09:44:22;;;;;;;26.02;19.13;;;11.60;99.90;;;;;;5119149;28;20062;-71
2022/11/15 09:47:20;;;;;;;29.25;18.30;;;11.60;99.90;;;;;;5115012;28;20381;-71
2022/11/15 09:49:47;;;;;;;23.30;17.42;;;11.60;99.90;;;;;;5017037;28;20490;-71
2022/11/15 09:52:13;;;;;;;25.48;17.58;;;11.60;99.90;;;;;;5016932;28;20049;-71
2022/11/15 09:54:43;;;;;;;22.30;17.65;;;11.70;99.90;;;;;;5033430;28;20065;-71
2022/11/15 09:57:18;;;;;;;27.00;18.67;;;11.70;99.90;;;;;;5016972;28;20045;-70
2022/11/15 10:00:19;;;;;;;25.05;18.63;;;11.70;99.90;;;;;;5016891;28;20057;-70
2022/11/15 10:03:17;;;;;;;22.50;17.45;;;11.70;99.90;;;;;;5016977;28;20516;-70
2022/11/15 10:05:46;;;;;;;21.15;17.13;;;11.80;99.90;;;;;;5016952;28;20103;-70
2022/11/15 10:08:38;;;;;;;26.27;16.73;;;11.80;99.90;;;;;;5016660;28;20116;-70
2022/11/15 10:11:09;;;;;;;22.13;16.90;;;11.80;99.90;;;;;;5018288;28;20128;-71
2022/11/15 10:13:41;;;;;;;19.88;16.40;;;11.80;99.90;;;;;;5020025;28;20150;-71
2022/11/15 10:17:09;;;;;;;22.38;17.05;;;11.80;99.90;;;;;;5020459;28;20534;-71
2022/11/15 10:19:59;;;;;;;23.95;15.90;;;11.80;99.90;;;;;;5019852;28;20080;-71
2022/11/15 10:22:26;;;;;;;22.73;16.73;;;11.80;99.90;;;;;;5019904;28;20108;-71
2022/11/15 10:25:09;;;;;;;20.48;16.77;;;11.80;99.90;;;;;;5016561;28;20041;-68
2022/11/15 10:27:35;;;;;;;20.70;15.05;;;11.90;99.90;;;;;;5114570;28;20043;-68
2022/11/15 10:30:03;;;;;;;20.90;15.63;;;11.90;99.90;;;;;;5114193;28;20412;-71
2022/11/15 10:32:32;;;;;;;20.88;14.73;;;11.90;99.90;;;;;;5114295;28;20048;-71
2022/11/15 10:34:58;;;;;;;17.70;14.35;;;11.90;99.90;;;;;;5115287;27;20441;-71
2022/11/15 10:37:31;;;;;;;18.83;14.43;;;12.00;99.90;;;;;;5114029;28;20122;-68
2022/11/15 10:40:16;;;;;;;17.63;14.55;;;12.00;99.90;;;;;;5113907;28;20036;-69
2022/11/15 10:42:42;;;;;;;19.08;13.90;;;12.10;99.90;;;;;;5113106;28;20043;-70
2022/11/15 10:45:29;;;;;;;14.32;12.68;;;12.10;99.90;;;;;;5113861;28;20046;-71
2022/11/15 10:48:19;;;;;;;16.50;12.60;;;12.20;99.90;;;;;;5113828;28;20403;-71
2022/11/15 10:50:47;;;;;;;19.98;11.85;;;12.20;99.90;;;;;;5113993;28;20039;-70
2022/11/15 10:53:22;;;;;;;14.07;9.38;;;12.20;99.90;;;;;;5113513;28;20053;-70
2022/11/15 10:55:51;;;;;;;11.18;9.85;;;12.30;99.90;;;;;;5114933;28;20044;-70
2022/11/15 10:58:40;;;;;;;13.45;9.57;;;12.40;99.90;;;;;;5113606;28;20091;-70
2022/11/15 11:01:29;;;;;;;12.88;10.00;;;12.50;99.90;;;;;;5116574;28;20066;-71
2022/11/15 11:04:09;;;;;;;11.77;8.88;;;12.70;99.90;;;;;;5103715;28;20055;-71
2022/11/15 11:06:54;;;;;;;10.13;7.60;;;13.00;99.90;;;;;;5117542;28;20549;-71
2022/11/15 11:09:33;;;;;;;10.32;6.90;;;13.80;99.90;;;;;;5099781;28;20039;-71
2022/11/15 11:11:59;;;;;;;10.15;6.45;;;14.20;99.90;;;;;;5117507;28;20045;-71
2022/11/15 11:14:31;;;;;;;7.60;5.38;;;14.20;99.90;;;;;;5116807;28;20556;-71
2022/11/15 11:17:02;;;;;;;6.90;4.90;;;14.20;99.90;;;;;;5116045;28;20032;-68
2022/11/15 11:19:56;;;;;;;6.90;4.88;;;14.30;99.90;;;;;;5113240;28;20065;-68
2022/11/15 11:22:31;;;;;;;;;;;14.30;99.90;;;;;;5113487;28;20123;-68
2022/11/15 11:25:22;;;;;;;5.32;2.80;;;14.10;99.90;;;;;;5113219;28;19962;-68
2022/11/15 11:28:14;;;;;;;6.40;2.70;;;14.00;99.90;;;;;;5113373;28;20036;-68
2022/11/15 11:31:04;;;;;;;7.32;2.67;;;13.80;99.90;;;;;;5113044;28;20412;-69
2022/11/15 11:33:36;;;;;;;7.70;2.45;;;13.40;99.90;;;;;;5114315;28;20118;-69
2022/11/15 11:36:32;;;;;;;6.05;2.60;;;13.30;99.90;;;;;;5113183;28;20052;-68
2022/11/15 11:39:25;;;;;;;9.18;2.83;;;13.20;99.90;;;;;;5115298;28;20122;-71
2022/11/15 11:42:09;;;;;;;10.95;2.78;;;13.20;99.90;;;;;;5115702;28;20044;-71
2022/11/15 11:45:01;;;;;;;5.75;2.80;;;13.10;99.90;;;;;;5116997;28;20126;-71
2022/11/15 11:47:51;;;;;;;6.90;3.10;;;13.10;99.90;;;;;;5114372;28;20082;-68
2022/11/15 11:50:24;;;;;;;4.78;2.38;;;13.20;99.90;;;;;;5112975;28;20484;-68
2022/11/15 11:52:56;;;;;;;9.13;2.53;;;13.20;99.90;;;;;;5112343;28;20492;-71
2022/11/15 11:55:32;;;;;;;7.13;2.45;;;13.20;99.90;;;;;;5114122;28;20043;-71
2022/11/15 11:58:15;;;;;;;6.45;2.28;;;13.20;99.90;;;;;;5112950;28;20103;-71
2022/11/15 12:00:46;;;;;;;6.75;2.00;;;13.20;99.90;;;;;;5114121;28;20078;-71
2022/11/15 12:03:28;;;;;;;6.20;2.13;;;13.10;99.90;;;;;;5115435;28;20444;-71
2022/11/15 12:06:02;;;;;;;6.90;2.08;;;13.10;99.90;;;;;;5114877;28;20046;-71
2022/11/15 12:08:50;;;;;;;6.65;2.15;;;13.10;99.90;;;;;;5113650;28;20540;-68
2022/11/15 12:11:57;;;;;;;5.72;2.70;;;13.40;99.90;;;;;;5112633;28;20043;-71
2022/11/15 12:15:00;;;;;;;3.78;2.42;;;13.70;99.90;;;;;;5102827;28;20527;-71
2022/11/15 12:17:31;;;;;;;10.93;3.33;;;13.90;99.90;;;;;;5116036;28;20047;-71
2022/11/15 12:20:03;;;;;;;5.45;3.22;;;13.80;99.90;;;;;;5113562;28;20497;-71
2022/11/15 12:22:35;;;;;;;6.28;3.30;;;13.90;99.90;;;;;;5112292;28;20047;-71
2022/11/15 12:25:30;;;;;;;7.07;3.72;;;14.70;99.90;;;;;;5112447;28;20519;-71
2022/11/15 12:28:20;;;;;;;5.75;3.30;;;16.20;99.90;;;;;;5109721;28;20055;-71
2022/11/15 12:30:56;;;;;;;10.65;2.80;;;17.90;99.90;;;;;;5113510;28;20097;-71
2022/11/15 12:33:35;;;;;;;3.90;2.38;;;19.10;99.90;;;;;;5113463;28;20496;-71
2022/11/15 12:36:04;;;;;;;7.25;2.40;;;20.10;98.10;;;;;;5112437;28;20051;-71
2022/11/15 12:38:51;;;;;;;7.63;2.35;;;20.00;95.60;;;;;;5112229;28;20036;-71
2022/11/15 12:41:18;;;;;;;6.00;2.22;;;19.10;94.30;;;;;;5111949;28;20047;-71
2022/11/15 12:43:46;;;;;;;6.40;2.35;;;18.60;96.20;;;;;;5112069;28;20502;-71
2022/11/15 12:46:24;;;;;;;6.05;2.00;;;17.90;96.90;;;;;;5113300;28;20075;-71
2022/11/15 12:48:52;;;;;;;5.10;2.72;;;17.20;97.20;;;;;;5112333;28;20120;-68
2022/11/15 12:51:42;;;;;;;5.15;2.13;;;16.60;98.60;;;;;;5112082;28;20629;-68
2022/11/15 12:54:23;;;;;;;6.32;2.05;;;16.00;99.40;;;;;;5112000;28;20488;-68
2022/11/15 12:57:14;;;;;;;5.25;1.98;;;15.60;99.90;;;;;;5112033;28;20044;-68
2022/11/15 12:59:48;;;;;;;6.63;2.17;;;15.20;99.90;;;;;;5111897;28;20043;-68
2022/11/15 13:02:34;;;;;;;7.25;2.97;;;15.00;99.90;;;;;;5111781;28;20092;-68
2022/11/15 13:05:15;;;;;;;5.20;2.38;;;15.00;99.90;;;;;;5113756;28;20044;-71
2022/11/15 13:07:41;;;;;;;5.07;2.33;;;15.10;99.90;;;;;;5116163;28;20491;-71
2022/11/15 13:10:09;;;;;;;4.70;2.08;;;15.20;99.90;;;;;;5115908;28;20065;-71
2022/11/15 13:12:38;;;;;;;4.30;1.98;;;16.00;99.90;;;;;;5115849;28;20036;-72